sensor_id;sensor_type;location;lat;lon;timestamp;P1;durP1;ratioP1;P2;durP2;ratioP2
13477;SDS011;12598;62.382;17.344;2023-12-07T00:00:50;2.58;;;2.38;;
13477;SDS011;12598;62.382;17.344;2023-12-07T00:01:52;1.90;;;1.80;;
13477;SDS011;12598;62.382;17.344;2023-12-07T00:02:54;2.28;;;2.08;;
13477;SDS011;12598;62.382;17.344;2023-12-07T00:03:55;2.35;;;2.15;;
13477;SDS011;12598;62.382;17.344;2023-12-07T00:04:57;2.30;;;2.10;;
13477;SDS011;12598;62.382;17.344;2023-12-07T00:05:59;2.80;;;2.47;;
13477;SDS011;12598;62.382;17.344;2023-12-07T00:07:01;2.58;;;2.38;;
13477;SDS011;12598;62.382;17.344;2023-12-07T00:08:03;2.45;;;2.25;;
13477;SDS011;12598;62.382;17.344;2023-12-07T00:09:05;2.55;;;2.35;;
13477;SDS011;12598;62.382;17.344;2023-12-07T00:10:07;2.58;;;2.38;;
13477;SDS011;12598;62.382;17.344;2023-12-07T00:11:09;2.33;;;2.13;;
13477;SDS011;12598;62.382;17.344;2023-12-07T00:12:10;2.35;;;2.15;;
13477;SDS011;12598;62.382;17.344;2023-12-07T00:13:12;2.50;;;2.30;;
13477;SDS011;12598;62.382;17.344;2023-12-07T00:14:14;2.55;;;2.35;;
13477;SDS011;12598;62.382;17.344;2023-12-07T00:15:16;2.40;;;2.20;;
13477;SDS011;12598;62.382;17.344;2023-12-07T00:16:18;2.50;;;2.30;;
13477;SDS011;12598;62.382;17.344;2023-12-07T00:17:20;2.50;;;2.20;;
13477;SDS011;12598;62.382;17.344;2023-12-07T00:18:22;2.60;;;2.40;;
13477;SDS011;12598;62.382;17.344;2023-12-07T00:19:23;2.47;;;2.25;;
13477;SDS011;12598;62.382;17.344;2023-12-07T00:20:25;2.58;;;2.38;;
13477;SDS011;12598;62.382;17.344;2023-12-07T00:21:27;2.33;;;2.13;;
13477;SDS011;12598;62.382;17.344;2023-12-07T00:22:29;2.70;;;2.50;;
13477;SDS011;12598;62.382;17.344;2023-12-07T00:23:31;2.65;;;2.40;;
13477;SDS011;12598;62.382;17.344;2023-12-07T00:24:33;2.58;;;2.38;;
13477;SDS011;12598;62.382;17.344;2023-12-07T00:25:35;2.90;;;2.28;;
13477;SDS011;12598;62.382;17.344;2023-12-07T00:26:37;2.22;;;2.03;;
13477;SDS011;12598;62.382;17.344;2023-12-07T00:27:39;2.95;;;2.25;;
13477;SDS011;12598;62.382;17.344;2023-12-07T00:28:41;2.90;;;2.60;;
13477;SDS011;12598;62.382;17.344;2023-12-07T00:29:43;2.50;;;2.30;;
13477;SDS011;12598;62.382;17.344;2023-12-07T00:30:44;2.40;;;2.20;;
13477;SDS011;12598;62.382;17.344;2023-12-07T00:31:46;3.33;;;2.40;;
13477;SDS011;12598;62.382;17.344;2023-12-07T00:32:48;2.38;;;2.17;;
13477;SDS011;12598;62.382;17.344;2023-12-07T00:33:50;2.78;;;2.45;;
13477;SDS011;12598;62.382;17.344;2023-12-07T00:34:52;2.58;;;2.38;;
13477;SDS011;12598;62.382;17.344;2023-12-07T00:35:54;2.13;;;2.00;;
13477;SDS011;12598;62.382;17.344;2023-12-07T00:36:56;2.42;;;2.22;;
13477;SDS011;12598;62.382;17.344;2023-12-07T00:37:58;2.40;;;2.20;;
13477;SDS011;12598;62.382;17.344;2023-12-07T00:39:00;2.88;;;2.58;;
13477;SDS011;12598;62.382;17.344;2023-12-07T00:40:02;2.30;;;2.13;;
13477;SDS011;12598;62.382;17.344;2023-12-07T00:41:05;2.40;;;2.20;;
13477;SDS011;12598;62.382;17.344;2023-12-07T00:42:07;2.30;;;2.05;;
13477;SDS011;12598;62.382;17.344;2023-12-07T00:43:08;2.30;;;2.10;;
13477;SDS011;12598;62.382;17.344;2023-12-07T00:44:10;2.00;;;1.77;;
13477;SDS011;12598;62.382;17.344;2023-12-07T00:45:12;2.47;;;2.22;;
13477;SDS011;12598;62.382;17.344;2023-12-07T00:46:14;2.20;;;2.00;;
13477;SDS011;12598;62.382;17.344;2023-12-07T00:47:16;2.70;;;2.50;;
13477;SDS011;12598;62.382;17.344;2023-12-07T00:48:18;2.60;;;2.40;;
13477;SDS011;12598;62.382;17.344;2023-12-07T00:49:20;2.67;;;2.47;;
13477;SDS011;12598;62.382;17.344;2023-12-07T00:50:22;2.50;;;2.30;;
13477;SDS011;12598;62.382;17.344;2023-12-07T00:51:23;2.33;;;2.13;;
13477;SDS011;12598;62.382;17.344;2023-12-07T00:52:26;2.85;;;2.65;;
13477;SDS011;12598;62.382;17.344;2023-12-07T00:53:28;2.20;;;2.00;;
13477;SDS011;12598;62.382;17.344;2023-12-07T00:54:30;2.35;;;2.15;;
13477;SDS011;12598;62.382;17.344;2023-12-07T00:55:32;2.42;;;2.22;;
13477;SDS011;12598;62.382;17.344;2023-12-07T00:56:34;2.40;;;2.20;;
13477;SDS011;12598;62.382;17.344;2023-12-07T00:57:36;2.58;;;2.38;;
13477;SDS011;12598;62.382;17.344;2023-12-07T00:58:38;2.85;;;2.40;;
13477;SDS011;12598;62.382;17.344;2023-12-07T00:59:40;2.53;;;2.33;;
13477;SDS011;12598;62.382;17.344;2023-12-07T01:00:42;2.50;;;2.30;;
13477;SDS011;12598;62.382;17.344;2023-12-07T01:01:44;2.83;;;2.30;;
13477;SDS011;12598;62.382;17.344;2023-12-07T01:02:45;2.42;;;2.22;;
13477;SDS011;12598;62.382;17.344;2023-12-07T01:03:47;2.17;;;2.03;;
13477;SDS011;12598;62.382;17.344;2023-12-07T01:04:49;2.38;;;2.17;;
13477;SDS011;12598;62.382;17.344;2023-12-07T01:05:51;2.42;;;2.22;;
13477;SDS011;12598;62.382;17.344;2023-12-07T01:06:53;2.47;;;2.28;;
13477;SDS011;12598;62.382;17.344;2023-12-07T01:07:55;2.45;;;2.25;;
13477;SDS011;12598;62.382;17.344;2023-12-07T01:08:57;2.45;;;2.25;;
13477;SDS011;12598;62.382;17.344;2023-12-07T01:09:59;2.70;;;2.50;;
13477;SDS011;12598;62.382;17.344;2023-12-07T01:11:01;2.45;;;2.22;;
13477;SDS011;12598;62.382;17.344;2023-12-07T01:12:03;2.45;;;2.25;;
13477;SDS011;12598;62.382;17.344;2023-12-07T01:13:05;2.33;;;2.08;;
13477;SDS011;12598;62.382;17.344;2023-12-07T01:14:07;2.85;;;2.35;;
13477;SDS011;12598;62.382;17.344;2023-12-07T01:15:09;2.22;;;2.05;;
13477;SDS011;12598;62.382;17.344;2023-12-07T01:16:11;2.60;;;2.40;;
13477;SDS011;12598;62.382;17.344;2023-12-07T01:17:13;2.75;;;2.55;;
13477;SDS011;12598;62.382;17.344;2023-12-07T01:18:15;2.40;;;2.20;;
13477;SDS011;12598;62.382;17.344;2023-12-07T01:19:17;2.60;;;2.40;;
13477;SDS011;12598;62.382;17.344;2023-12-07T01:20:19;2.20;;;2.00;;
13477;SDS011;12598;62.382;17.344;2023-12-07T01:21:21;2.63;;;2.42;;
13477;SDS011;12598;62.382;17.344;2023-12-07T01:22:23;2.20;;;2.00;;
13477;SDS011;12598;62.382;17.344;2023-12-07T01:23:25;2.20;;;2.00;;
13477;SDS011;12598;62.382;17.344;2023-12-07T01:24:27;2.42;;;2.22;;
13477;SDS011;12598;62.382;17.344;2023-12-07T01:25:30;1.98;;;1.88;;
13477;SDS011;12598;62.382;17.344;2023-12-07T01:26:33;2.08;;;1.88;;
13477;SDS011;12598;62.382;17.344;2023-12-07T01:27:35;2.15;;;1.98;;
13477;SDS011;12598;62.382;17.344;2023-12-07T01:28:37;1.80;;;1.70;;
13477;SDS011;12598;62.382;17.344;2023-12-07T01:29:39;2.70;;;1.95;;
13477;SDS011;12598;62.382;17.344;2023-12-07T01:30:41;2.03;;;1.90;;
13477;SDS011;12598;62.382;17.344;2023-12-07T01:31:43;2.20;;;2.00;;
13477;SDS011;12598;62.382;17.344;2023-12-07T01:32:45;2.13;;;1.92;;
13477;SDS011;12598;62.382;17.344;2023-12-07T01:33:47;2.28;;;1.85;;
13477;SDS011;12598;62.382;17.344;2023-12-07T01:34:49;2.65;;;2.45;;
13477;SDS011;12598;62.382;17.344;2023-12-07T01:35:51;2.40;;;2.20;;
13477;SDS011;12598;62.382;17.344;2023-12-07T01:36:53;2.47;;;2.28;;
13477;SDS011;12598;62.382;17.344;2023-12-07T01:37:55;2.20;;;2.00;;
13477;SDS011;12598;62.382;17.344;2023-12-07T01:38:56;2.92;;;2.20;;
13477;SDS011;12598;62.382;17.344;2023-12-07T01:39:58;1.70;;;1.60;;
13477;SDS011;12598;62.382;17.344;2023-12-07T01:41:00;2.40;;;2.20;;
13477;SDS011;12598;62.382;17.344;2023-12-07T01:42:02;2.05;;;1.95;;
13477;SDS011;12598;62.382;17.344;2023-12-07T01:43:04;2.50;;;2.30;;
13477;SDS011;12598;62.382;17.344;2023-12-07T01:44:06;2.17;;;2.08;;
13477;SDS011;12598;62.382;17.344;2023-12-07T01:45:07;2.40;;;2.20;;
13477;SDS011;12598;62.382;17.344;2023-12-07T01:46:09;2.20;;;2.00;;
13477;SDS011;12598;62.382;17.344;2023-12-07T01:47:11;2.05;;;1.90;;
13477;SDS011;12598;62.382;17.344;2023-12-07T01:48:14;2.15;;;1.95;;
13477;SDS011;12598;62.382;17.344;2023-12-07T01:49:16;2.10;;;1.90;;
13477;SDS011;12598;62.382;17.344;2023-12-07T01:50:18;1.88;;;1.73;;
13477;SDS011;12598;62.382;17.344;2023-12-07T01:51:26;2.03;;;1.92;;
13477;SDS011;12598;62.382;17.344;2023-12-07T01:52:28;1.80;;;1.60;;
13477;SDS011;12598;62.382;17.344;2023-12-07T01:53:31;3.55;;;2.35;;
13477;SDS011;12598;62.382;17.344;2023-12-07T01:54:33;2.25;;;1.88;;
13477;SDS011;12598;62.382;17.344;2023-12-07T01:55:35;2.25;;;2.05;;
13477;SDS011;12598;62.382;17.344;2023-12-07T01:56:38;2.30;;;2.10;;
13477;SDS011;12598;62.382;17.344;2023-12-07T01:57:40;1.90;;;1.80;;
13477;SDS011;12598;62.382;17.344;2023-12-07T01:58:44;2.50;;;2.30;;
13477;SDS011;12598;62.382;17.344;2023-12-07T01:59:46;1.98;;;1.88;;
13477;SDS011;12598;62.382;17.344;2023-12-07T02:00:50;2.00;;;1.83;;
13477;SDS011;12598;62.382;17.344;2023-12-07T02:01:52;2.00;;;1.85;;
13477;SDS011;12598;62.382;17.344;2023-12-07T02:02:54;1.98;;;1.80;;
13477;SDS011;12598;62.382;17.344;2023-12-07T02:03:56;2.40;;;2.20;;
13477;SDS011;12598;62.382;17.344;2023-12-07T02:04:58;2.05;;;1.92;;
13477;SDS011;12598;62.382;17.344;2023-12-07T02:06:00;2.35;;;2.00;;
13477;SDS011;12598;62.382;17.344;2023-12-07T02:07:02;2.20;;;2.00;;
13477;SDS011;12598;62.382;17.344;2023-12-07T02:08:06;1.73;;;1.63;;
13477;SDS011;12598;62.382;17.344;2023-12-07T02:09:07;2.15;;;1.98;;
13477;SDS011;12598;62.382;17.344;2023-12-07T02:10:10;2.17;;;1.98;;
13477;SDS011;12598;62.382;17.344;2023-12-07T02:11:12;2.00;;;1.90;;
13477;SDS011;12598;62.382;17.344;2023-12-07T02:12:14;2.30;;;1.77;;
13477;SDS011;12598;62.382;17.344;2023-12-07T02:13:16;2.13;;;1.92;;
13477;SDS011;12598;62.382;17.344;2023-12-07T02:14:19;2.30;;;2.10;;
13477;SDS011;12598;62.382;17.344;2023-12-07T02:15:21;1.77;;;1.67;;
13477;SDS011;12598;62.382;17.344;2023-12-07T02:16:39;1.98;;;1.65;;
13477;SDS011;12598;62.382;17.344;2023-12-07T02:18:02;1.70;;;1.60;;
13477;SDS011;12598;62.382;17.344;2023-12-07T02:19:33;1.73;;;1.60;;
13477;SDS011;12598;62.382;17.344;2023-12-07T02:20:54;1.95;;;1.80;;
13477;SDS011;12598;62.382;17.344;2023-12-07T02:22:06;1.75;;;1.65;;
13477;SDS011;12598;62.382;17.344;2023-12-07T02:23:13;2.30;;;2.10;;
13477;SDS011;12598;62.382;17.344;2023-12-07T02:24:36;2.15;;;1.95;;
13477;SDS011;12598;62.382;17.344;2023-12-07T02:27:05;2.17;;;1.98;;
13477;SDS011;12598;62.382;17.344;2023-12-07T02:28:07;1.80;;;1.70;;
13477;SDS011;12598;62.382;17.344;2023-12-07T02:29:09;1.90;;;1.80;;
13477;SDS011;12598;62.382;17.344;2023-12-07T02:30:11;1.95;;;1.85;;
13477;SDS011;12598;62.382;17.344;2023-12-07T02:31:13;1.90;;;1.80;;
13477;SDS011;12598;62.382;17.344;2023-12-07T02:32:15;1.77;;;1.67;;
13477;SDS011;12598;62.382;17.344;2023-12-07T02:33:17;1.92;;;1.48;;
13477;SDS011;12598;62.382;17.344;2023-12-07T02:34:19;1.67;;;1.58;;
13477;SDS011;12598;62.382;17.344;2023-12-07T02:35:21;1.85;;;1.75;;
13477;SDS011;12598;62.382;17.344;2023-12-07T02:36:24;2.03;;;1.85;;
13477;SDS011;12598;62.382;17.344;2023-12-07T02:37:28;2.15;;;1.90;;
13477;SDS011;12598;62.382;17.344;2023-12-07T02:38:39;2.20;;;2.00;;
13477;SDS011;12598;62.382;17.344;2023-12-07T02:39:42;1.98;;;1.80;;
13477;SDS011;12598;62.382;17.344;2023-12-07T02:40:44;1.90;;;1.80;;
13477;SDS011;12598;62.382;17.344;2023-12-07T02:41:49;1.83;;;1.73;;
13477;SDS011;12598;62.382;17.344;2023-12-07T02:42:55;2.00;;;1.77;;
13477;SDS011;12598;62.382;17.344;2023-12-07T02:43:58;2.00;;;1.80;;
13477;SDS011;12598;62.382;17.344;2023-12-07T02:45:02;1.75;;;1.65;;
13477;SDS011;12598;62.382;17.344;2023-12-07T02:46:04;2.17;;;1.98;;
13477;SDS011;12598;62.382;17.344;2023-12-07T02:47:06;1.67;;;1.58;;
13477;SDS011;12598;62.382;17.344;2023-12-07T02:48:08;2.03;;;1.80;;
13477;SDS011;12598;62.382;17.344;2023-12-07T02:49:10;2.08;;;1.90;;
13477;SDS011;12598;62.382;17.344;2023-12-07T02:50:12;1.90;;;1.80;;
13477;SDS011;12598;62.382;17.344;2023-12-07T02:51:14;2.10;;;1.90;;
13477;SDS011;12598;62.382;17.344;2023-12-07T02:52:16;1.75;;;1.65;;
13477;SDS011;12598;62.382;17.344;2023-12-07T02:53:18;1.90;;;1.70;;
13477;SDS011;12598;62.382;17.344;2023-12-07T02:54:20;2.40;;;2.20;;
13477;SDS011;12598;62.382;17.344;2023-12-07T02:55:22;1.90;;;1.80;;
13477;SDS011;12598;62.382;17.344;2023-12-07T02:56:24;1.98;;;1.80;;
13477;SDS011;12598;62.382;17.344;2023-12-07T02:57:25;1.90;;;1.80;;
13477;SDS011;12598;62.382;17.344;2023-12-07T02:58:27;1.95;;;1.85;;
13477;SDS011;12598;62.382;17.344;2023-12-07T02:59:29;1.70;;;1.60;;
13477;SDS011;12598;62.382;17.344;2023-12-07T03:00:31;1.70;;;1.60;;
13477;SDS011;12598;62.382;17.344;2023-12-07T03:01:33;1.75;;;1.65;;
13477;SDS011;12598;62.382;17.344;2023-12-07T03:02:35;1.80;;;1.70;;
13477;SDS011;12598;62.382;17.344;2023-12-07T03:03:38;1.58;;;1.48;;
13477;SDS011;12598;62.382;17.344;2023-12-07T03:04:42;1.88;;;1.77;;
13477;SDS011;12598;62.382;17.344;2023-12-07T03:05:44;2.30;;;2.10;;
13477;SDS011;12598;62.382;17.344;2023-12-07T03:06:45;1.92;;;1.70;;
13477;SDS011;12598;62.382;17.344;2023-12-07T03:07:47;1.52;;;1.42;;
13477;SDS011;12598;62.382;17.344;2023-12-07T03:08:49;1.98;;;1.88;;
13477;SDS011;12598;62.382;17.344;2023-12-07T03:09:51;1.50;;;1.40;;
13477;SDS011;12598;62.382;17.344;2023-12-07T03:10:52;1.90;;;1.80;;
13477;SDS011;12598;62.382;17.344;2023-12-07T03:11:54;1.88;;;1.77;;
13477;SDS011;12598;62.382;17.344;2023-12-07T03:12:56;1.65;;;1.55;;
13477;SDS011;12598;62.382;17.344;2023-12-07T03:13:58;1.70;;;1.60;;
13477;SDS011;12598;62.382;17.344;2023-12-07T03:15:00;1.63;;;1.52;;
13477;SDS011;12598;62.382;17.344;2023-12-07T03:16:06;2.72;;;1.55;;
13477;SDS011;12598;62.382;17.344;2023-12-07T03:17:09;1.70;;;1.60;;
13477;SDS011;12598;62.382;17.344;2023-12-07T03:18:10;1.63;;;1.52;;
13477;SDS011;12598;62.382;17.344;2023-12-07T03:19:12;1.70;;;1.60;;
13477;SDS011;12598;62.382;17.344;2023-12-07T03:20:14;2.08;;;1.88;;
13477;SDS011;12598;62.382;17.344;2023-12-07T03:21:16;2.13;;;1.92;;
13477;SDS011;12598;62.382;17.344;2023-12-07T03:22:18;1.48;;;1.38;;
13477;SDS011;12598;62.382;17.344;2023-12-07T03:23:20;1.83;;;1.73;;
13477;SDS011;12598;62.382;17.344;2023-12-07T03:24:22;1.75;;;1.65;;
13477;SDS011;12598;62.382;17.344;2023-12-07T03:25:24;1.80;;;1.70;;
13477;SDS011;12598;62.382;17.344;2023-12-07T03:26:26;1.73;;;1.60;;
13477;SDS011;12598;62.382;17.344;2023-12-07T03:27:28;1.77;;;1.67;;
13477;SDS011;12598;62.382;17.344;2023-12-07T03:28:30;1.73;;;1.63;;
13477;SDS011;12598;62.382;17.344;2023-12-07T03:29:32;1.85;;;1.60;;
13477;SDS011;12598;62.382;17.344;2023-12-07T03:30:34;1.63;;;1.52;;
13477;SDS011;12598;62.382;17.344;2023-12-07T03:31:35;1.58;;;1.48;;
13477;SDS011;12598;62.382;17.344;2023-12-07T03:32:37;1.60;;;1.50;;
13477;SDS011;12598;62.382;17.344;2023-12-07T03:33:41;1.90;;;1.80;;
13477;SDS011;12598;62.382;17.344;2023-12-07T03:34:43;1.85;;;1.75;;
13477;SDS011;12598;62.382;17.344;2023-12-07T03:35:45;1.45;;;1.35;;
13477;SDS011;12598;62.382;17.344;2023-12-07T03:36:47;1.60;;;1.50;;
13477;SDS011;12598;62.382;17.344;2023-12-07T03:37:49;1.80;;;1.70;;
13477;SDS011;12598;62.382;17.344;2023-12-07T03:38:51;1.60;;;1.50;;
13477;SDS011;12598;62.382;17.344;2023-12-07T03:39:53;1.80;;;1.70;;
13477;SDS011;12598;62.382;17.344;2023-12-07T03:40:55;1.55;;;1.45;;
13477;SDS011;12598;62.382;17.344;2023-12-07T03:41:57;1.73;;;1.63;;
13477;SDS011;12598;62.382;17.344;2023-12-07T03:42:59;1.50;;;1.40;;
13477;SDS011;12598;62.382;17.344;2023-12-07T03:44:01;1.73;;;1.60;;
13477;SDS011;12598;62.382;17.344;2023-12-07T03:45:03;1.48;;;1.38;;
13477;SDS011;12598;62.382;17.344;2023-12-07T03:46:05;1.60;;;1.50;;
13477;SDS011;12598;62.382;17.344;2023-12-07T03:47:08;1.58;;;1.48;;
13477;SDS011;12598;62.382;17.344;2023-12-07T03:48:10;1.65;;;1.55;;
13477;SDS011;12598;62.382;17.344;2023-12-07T03:49:12;1.50;;;1.40;;
13477;SDS011;12598;62.382;17.344;2023-12-07T03:50:14;1.77;;;1.67;;
13477;SDS011;12598;62.382;17.344;2023-12-07T03:51:15;1.42;;;1.33;;
13477;SDS011;12598;62.382;17.344;2023-12-07T03:52:18;1.70;;;1.60;;
13477;SDS011;12598;62.382;17.344;2023-12-07T03:53:20;1.95;;;1.60;;
13477;SDS011;12598;62.382;17.344;2023-12-07T03:54:21;2.30;;;1.52;;
13477;SDS011;12598;62.382;17.344;2023-12-07T03:55:23;1.30;;;1.20;;
13477;SDS011;12598;62.382;17.344;2023-12-07T03:56:26;1.70;;;1.60;;
13477;SDS011;12598;62.382;17.344;2023-12-07T03:57:30;1.70;;;1.60;;
13477;SDS011;12598;62.382;17.344;2023-12-07T03:58:32;1.60;;;1.50;;
13477;SDS011;12598;62.382;17.344;2023-12-07T03:59:35;1.55;;;1.45;;
13477;SDS011;12598;62.382;17.344;2023-12-07T04:00:38;1.45;;;1.35;;
13477;SDS011;12598;62.382;17.344;2023-12-07T04:01:40;1.58;;;1.48;;
13477;SDS011;12598;62.382;17.344;2023-12-07T04:02:42;1.92;;;1.77;;
13477;SDS011;12598;62.382;17.344;2023-12-07T04:03:43;1.27;;;1.17;;
13477;SDS011;12598;62.382;17.344;2023-12-07T04:04:45;1.23;;;1.13;;
13477;SDS011;12598;62.382;17.344;2023-12-07T04:05:47;1.45;;;1.35;;
13477;SDS011;12598;62.382;17.344;2023-12-07T04:06:49;1.70;;;1.60;;
13477;SDS011;12598;62.382;17.344;2023-12-07T04:07:51;1.63;;;1.52;;
13477;SDS011;12598;62.382;17.344;2023-12-07T04:08:53;1.40;;;1.30;;
13477;SDS011;12598;62.382;17.344;2023-12-07T04:09:55;1.67;;;1.30;;
13477;SDS011;12598;62.382;17.344;2023-12-07T04:10:59;1.45;;;1.35;;
13477;SDS011;12598;62.382;17.344;2023-12-07T04:12:00;1.60;;;1.50;;
13477;SDS011;12598;62.382;17.344;2023-12-07T04:13:02;1.70;;;1.60;;
13477;SDS011;12598;62.382;17.344;2023-12-07T04:14:04;2.08;;;1.48;;
13477;SDS011;12598;62.382;17.344;2023-12-07T04:15:06;1.63;;;1.40;;
13477;SDS011;12598;62.382;17.344;2023-12-07T04:16:09;1.45;;;1.35;;
13477;SDS011;12598;62.382;17.344;2023-12-07T04:17:11;1.60;;;1.40;;
13477;SDS011;12598;62.382;17.344;2023-12-07T04:18:13;1.50;;;1.27;;
13477;SDS011;12598;62.382;17.344;2023-12-07T04:19:15;2.10;;;1.50;;
13477;SDS011;12598;62.382;17.344;2023-12-07T04:20:17;1.90;;;1.48;;
13477;SDS011;12598;62.382;17.344;2023-12-07T04:21:19;1.38;;;1.27;;
13477;SDS011;12598;62.382;17.344;2023-12-07T04:22:21;1.50;;;1.40;;
13477;SDS011;12598;62.382;17.344;2023-12-07T04:23:23;1.67;;;1.40;;
13477;SDS011;12598;62.382;17.344;2023-12-07T04:24:25;1.70;;;1.60;;
13477;SDS011;12598;62.382;17.344;2023-12-07T04:25:27;1.50;;;1.40;;
13477;SDS011;12598;62.382;17.344;2023-12-07T04:26:29;1.40;;;1.30;;
13477;SDS011;12598;62.382;17.344;2023-12-07T04:27:31;1.60;;;1.50;;
13477;SDS011;12598;62.382;17.344;2023-12-07T04:28:33;1.70;;;1.60;;
13477;SDS011;12598;62.382;17.344;2023-12-07T04:29:35;1.40;;;1.30;;
13477;SDS011;12598;62.382;17.344;2023-12-07T04:30:37;1.52;;;1.42;;
13477;SDS011;12598;62.382;17.344;2023-12-07T04:31:39;1.65;;;1.55;;
13477;SDS011;12598;62.382;17.344;2023-12-07T04:32:40;1.50;;;1.40;;
13477;SDS011;12598;62.382;17.344;2023-12-07T04:33:43;1.63;;;1.52;;
13477;SDS011;12598;62.382;17.344;2023-12-07T04:34:45;1.77;;;1.67;;
13477;SDS011;12598;62.382;17.344;2023-12-07T04:35:47;1.73;;;1.63;;
13477;SDS011;12598;62.382;17.344;2023-12-07T04:36:49;1.88;;;1.65;;
13477;SDS011;12598;62.382;17.344;2023-12-07T04:37:51;1.70;;;1.60;;
13477;SDS011;12598;62.382;17.344;2023-12-07T04:38:52;1.77;;;1.63;;
13477;SDS011;12598;62.382;17.344;2023-12-07T04:39:54;1.25;;;1.15;;
13477;SDS011;12598;62.382;17.344;2023-12-07T04:40:56;1.55;;;1.45;;
13477;SDS011;12598;62.382;17.344;2023-12-07T04:41:58;1.67;;;1.58;;
13477;SDS011;12598;62.382;17.344;2023-12-07T04:43:00;1.80;;;1.70;;
13477;SDS011;12598;62.382;17.344;2023-12-07T04:44:02;1.70;;;1.60;;
13477;SDS011;12598;62.382;17.344;2023-12-07T04:45:04;1.60;;;1.45;;
13477;SDS011;12598;62.382;17.344;2023-12-07T04:46:06;1.70;;;1.60;;
13477;SDS011;12598;62.382;17.344;2023-12-07T04:47:08;1.85;;;1.65;;
13477;SDS011;12598;62.382;17.344;2023-12-07T04:48:09;1.40;;;1.30;;
13477;SDS011;12598;62.382;17.344;2023-12-07T04:49:12;2.00;;;1.75;;
13477;SDS011;12598;62.382;17.344;2023-12-07T04:50:14;1.45;;;1.35;;
13477;SDS011;12598;62.382;17.344;2023-12-07T04:51:16;1.67;;;1.58;;
13477;SDS011;12598;62.382;17.344;2023-12-07T04:52:17;1.27;;;1.17;;
13477;SDS011;12598;62.382;17.344;2023-12-07T04:53:21;1.42;;;1.33;;
13477;SDS011;12598;62.382;17.344;2023-12-07T04:54:22;1.65;;;1.55;;
13477;SDS011;12598;62.382;17.344;2023-12-07T04:55:24;1.65;;;1.55;;
13477;SDS011;12598;62.382;17.344;2023-12-07T04:56:26;1.58;;;1.35;;
13477;SDS011;12598;62.382;17.344;2023-12-07T04:57:28;1.73;;;1.63;;
13477;SDS011;12598;62.382;17.344;2023-12-07T04:58:29;1.40;;;1.30;;
13477;SDS011;12598;62.382;17.344;2023-12-07T04:59:31;1.35;;;1.23;;
13477;SDS011;12598;62.382;17.344;2023-12-07T05:00:33;1.42;;;1.33;;
13477;SDS011;12598;62.382;17.344;2023-12-07T05:01:35;1.77;;;1.63;;
13477;SDS011;12598;62.382;17.344;2023-12-07T05:02:38;1.63;;;1.52;;
13477;SDS011;12598;62.382;17.344;2023-12-07T05:03:39;1.40;;;1.30;;
13477;SDS011;12598;62.382;17.344;2023-12-07T05:04:41;1.45;;;1.35;;
13477;SDS011;12598;62.382;17.344;2023-12-07T05:05:44;1.80;;;1.50;;
13477;SDS011;12598;62.382;17.344;2023-12-07T05:06:46;1.30;;;1.20;;
13477;SDS011;12598;62.382;17.344;2023-12-07T05:07:47;1.40;;;1.30;;
13477;SDS011;12598;62.382;17.344;2023-12-07T05:08:49;1.50;;;1.40;;
13477;SDS011;12598;62.382;17.344;2023-12-07T05:09:51;1.15;;;1.05;;
13477;SDS011;12598;62.382;17.344;2023-12-07T05:10:53;1.50;;;1.40;;
13477;SDS011;12598;62.382;17.344;2023-12-07T05:11:54;1.50;;;1.30;;
13477;SDS011;12598;62.382;17.344;2023-12-07T05:12:56;1.30;;;1.20;;
13477;SDS011;12598;62.382;17.344;2023-12-07T05:13:59;1.30;;;1.20;;
13477;SDS011;12598;62.382;17.344;2023-12-07T05:15:01;1.40;;;1.30;;
13477;SDS011;12598;62.382;17.344;2023-12-07T05:16:05;1.55;;;1.45;;
13477;SDS011;12598;62.382;17.344;2023-12-07T05:17:07;1.50;;;1.40;;
13477;SDS011;12598;62.382;17.344;2023-12-07T05:18:09;1.55;;;1.45;;
13477;SDS011;12598;62.382;17.344;2023-12-07T05:19:11;1.30;;;1.20;;
13477;SDS011;12598;62.382;17.344;2023-12-07T05:20:13;1.67;;;1.58;;
13477;SDS011;12598;62.382;17.344;2023-12-07T05:21:15;1.75;;;1.58;;
13477;SDS011;12598;62.382;17.344;2023-12-07T05:22:17;1.90;;;1.70;;
13477;SDS011;12598;62.382;17.344;2023-12-07T05:23:18;1.75;;;1.65;;
13477;SDS011;12598;62.382;17.344;2023-12-07T05:24:20;1.45;;;1.35;;
13477;SDS011;12598;62.382;17.344;2023-12-07T05:25:22;1.70;;;1.60;;
13477;SDS011;12598;62.382;17.344;2023-12-07T05:26:24;1.70;;;1.60;;
13477;SDS011;12598;62.382;17.344;2023-12-07T05:27:26;1.48;;;1.38;;
13477;SDS011;12598;62.382;17.344;2023-12-07T05:28:28;1.65;;;1.38;;
13477;SDS011;12598;62.382;17.344;2023-12-07T05:29:30;1.48;;;1.38;;
13477;SDS011;12598;62.382;17.344;2023-12-07T05:30:31;1.63;;;1.52;;
13477;SDS011;12598;62.382;17.344;2023-12-07T05:31:33;1.50;;;1.40;;
13477;SDS011;12598;62.382;17.344;2023-12-07T05:32:36;1.40;;;1.30;;
13477;SDS011;12598;62.382;17.344;2023-12-07T05:33:38;1.60;;;1.50;;
13477;SDS011;12598;62.382;17.344;2023-12-07T05:34:40;1.50;;;1.40;;
13477;SDS011;12598;62.382;17.344;2023-12-07T05:35:42;1.50;;;1.40;;
13477;SDS011;12598;62.382;17.344;2023-12-07T05:36:46;1.58;;;1.48;;
13477;SDS011;12598;62.382;17.344;2023-12-07T05:37:49;1.50;;;1.40;;
13477;SDS011;12598;62.382;17.344;2023-12-07T05:38:51;1.80;;;1.70;;
13477;SDS011;12598;62.382;17.344;2023-12-07T05:39:53;2.33;;;1.60;;
13477;SDS011;12598;62.382;17.344;2023-12-07T05:40:55;1.60;;;1.50;;
13477;SDS011;12598;62.382;17.344;2023-12-07T05:41:57;1.80;;;1.70;;
13477;SDS011;12598;62.382;17.344;2023-12-07T05:42:58;2.17;;;1.50;;
13477;SDS011;12598;62.382;17.344;2023-12-07T05:44:00;1.90;;;1.60;;
13477;SDS011;12598;62.382;17.344;2023-12-07T05:45:02;1.83;;;1.70;;
13477;SDS011;12598;62.382;17.344;2023-12-07T05:46:05;1.73;;;1.63;;
13477;SDS011;12598;62.382;17.344;2023-12-07T05:47:07;2.33;;;1.80;;
13477;SDS011;12598;62.382;17.344;2023-12-07T05:48:09;1.58;;;1.48;;
13477;SDS011;12598;62.382;17.344;2023-12-07T05:49:12;2.13;;;1.50;;
13477;SDS011;12598;62.382;17.344;2023-12-07T05:50:15;2.03;;;1.77;;
13477;SDS011;12598;62.382;17.344;2023-12-07T05:51:17;2.85;;;1.80;;
13477;SDS011;12598;62.382;17.344;2023-12-07T05:52:19;1.33;;;1.23;;
13477;SDS011;12598;62.382;17.344;2023-12-07T05:53:21;1.77;;;1.67;;
13477;SDS011;12598;62.382;17.344;2023-12-07T05:54:22;1.55;;;1.45;;
13477;SDS011;12598;62.382;17.344;2023-12-07T05:55:24;1.77;;;1.67;;
13477;SDS011;12598;62.382;17.344;2023-12-07T05:56:26;1.67;;;1.58;;
13477;SDS011;12598;62.382;17.344;2023-12-07T05:57:28;2.22;;;1.80;;
13477;SDS011;12598;62.382;17.344;2023-12-07T05:58:30;2.05;;;1.40;;
13477;SDS011;12598;62.382;17.344;2023-12-07T05:59:32;1.88;;;1.70;;
13477;SDS011;12598;62.382;17.344;2023-12-07T06:00:33;1.98;;;1.83;;
13477;SDS011;12598;62.382;17.344;2023-12-07T06:01:35;2.47;;;1.60;;
13477;SDS011;12598;62.382;17.344;2023-12-07T06:02:37;1.48;;;1.20;;
13477;SDS011;12598;62.382;17.344;2023-12-07T06:03:39;1.88;;;1.73;;
13477;SDS011;12598;62.382;17.344;2023-12-07T06:04:42;1.65;;;1.55;;
13477;SDS011;12598;62.382;17.344;2023-12-07T06:05:44;1.45;;;1.35;;
13477;SDS011;12598;62.382;17.344;2023-12-07T06:06:48;1.77;;;1.60;;
13477;SDS011;12598;62.382;17.344;2023-12-07T06:07:50;1.77;;;1.67;;
13477;SDS011;12598;62.382;17.344;2023-12-07T06:08:52;1.63;;;1.52;;
13477;SDS011;12598;62.382;17.344;2023-12-07T06:09:54;1.67;;;1.58;;
13477;SDS011;12598;62.382;17.344;2023-12-07T06:10:57;1.77;;;1.42;;
13477;SDS011;12598;62.382;17.344;2023-12-07T06:11:58;1.42;;;1.33;;